createdAt,value
2018-09-08T00:01:25.691Z,2.40
2018-09-08T00:03:53.184Z,2.20
2018-09-08T00:06:26.480Z,2.40
2018-09-08T00:08:54.350Z,2.90
2018-09-08T00:11:22.089Z,2.17
2018-09-08T00:13:49.660Z,2.30
2018-09-08T00:16:22.819Z,2.40
2018-09-08T00:18:55.970Z,2.60
2018-09-08T00:21:29.124Z,2.60
2018-09-08T00:24:02.651Z,2.60
2018-09-08T00:26:33.635Z,2.37
2018-09-08T00:29:13.279Z,2.70
2018-09-08T00:31:40.892Z,3.23
2018-09-08T00:34:08.433Z,2.13
2018-09-08T00:36:36.223Z,2.63
2018-09-08T00:39:06.103Z,2.40
2018-09-08T00:41:33.608Z,3.13
2018-09-08T00:44:01.091Z,2.97
2018-09-08T00:46:28.689Z,2.30
2018-09-08T00:48:56.799Z,2.47
2018-09-08T00:51:24.652Z,2.40
2018-09-08T00:53:52.227Z,2.80
2018-09-08T00:56:20.188Z,2.70
2018-09-08T00:58:53.509Z,2.83
2018-09-08T01:01:20.983Z,2.90
2018-09-08T01:03:48.862Z,2.90
2018-09-08T01:06:17.048Z,2.73
2018-09-08T01:08:44.879Z,3.20
2018-09-08T01:11:12.344Z,3.80
2018-09-08T01:13:39.805Z,3.30
2018-09-08T01:16:07.279Z,3.27
2018-09-08T01:18:36.272Z,3.80
2018-09-08T01:21:05.363Z,3.63
2018-09-08T01:23:33.023Z,3.27
2018-09-08T01:26:00.804Z,3.73
2018-09-08T01:28:28.296Z,3.30
2018-09-08T01:30:55.788Z,3.60
2018-09-08T01:33:23.705Z,3.87
2018-09-08T01:35:51.360Z,3.57
2018-09-08T01:38:19.270Z,3.50
2018-09-08T01:40:46.974Z,3.57
2018-09-08T01:43:14.620Z,3.90
2018-09-08T01:45:42.101Z,3.50
2018-09-08T01:48:10.010Z,4.33
2018-09-08T01:50:37.827Z,3.60
2018-09-08T01:53:05.833Z,3.90
2018-09-08T01:55:33.314Z,3.60
2018-09-08T01:58:00.817Z,4.20
2018-09-08T02:00:28.556Z,4.00
2018-09-08T02:02:56.356Z,5.33
2018-09-08T02:05:24.326Z,4.83
2018-09-08T02:07:52.341Z,3.43
2018-09-08T02:10:19.816Z,4.67
2018-09-08T02:12:47.299Z,4.27
2018-09-08T02:15:14.905Z,3.63
2018-09-08T02:17:42.543Z,4.13
2018-09-08T02:20:10.092Z,4.70
2018-09-08T02:22:37.770Z,4.67
2018-09-08T02:25:05.572Z,4.30
2018-09-08T02:27:33.130Z,4.60
2018-09-08T02:30:00.636Z,4.23
2018-09-08T02:32:28.146Z,4.70
2018-09-08T02:34:55.668Z,5.03
2018-09-08T02:37:23.183Z,4.27
2018-09-08T02:39:50.882Z,4.67
2018-09-08T02:42:19.362Z,4.63
2018-09-08T02:44:46.794Z,4.80
2018-09-08T02:47:14.337Z,6.80
2018-09-08T02:49:53.597Z,4.70
2018-09-08T02:52:20.032Z,5.57
2018-09-08T02:54:46.477Z,5.97
2018-09-08T02:57:13.088Z,5.03
2018-09-08T02:59:39.562Z,5.00
2018-09-08T03:02:06.391Z,5.60
2018-09-08T03:04:33.173Z,5.87
2018-09-08T03:07:02.188Z,5.50
2018-09-08T03:09:28.604Z,5.13
2018-09-08T03:11:55.484Z,5.30
2018-09-08T03:14:22.007Z,7.90
2018-09-08T03:16:48.656Z,5.37
2018-09-08T03:19:15.107Z,5.43
2018-09-08T03:21:41.520Z,6.20
2018-09-08T03:24:07.988Z,5.93
2018-09-08T03:26:34.584Z,6.40
2018-09-08T03:29:01.000Z,6.33
2018-09-08T03:31:27.511Z,6.50
2018-09-08T03:33:53.980Z,6.33
2018-09-08T03:36:20.415Z,6.33
2018-09-08T03:38:46.836Z,6.30
2018-09-08T03:41:13.425Z,7.00
2018-09-08T03:43:40.054Z,5.80
2018-09-08T03:46:06.835Z,6.30
2018-09-08T03:48:33.503Z,6.53
2018-09-08T03:51:05.009Z,6.47
2018-09-08T03:53:31.715Z,6.43
2018-09-08T03:55:58.135Z,6.83
2018-09-08T03:58:24.561Z,6.07
2018-09-08T04:00:51.074Z,6.33
2018-09-08T04:03:18.559Z,6.60
2018-09-08T04:05:46.182Z,7.00
2018-09-08T04:08:13.764Z,6.57
2018-09-08T04:10:41.503Z,7.83
2018-09-08T04:13:09.327Z,6.43
2018-09-08T04:15:36.807Z,6.77
2018-09-08T04:18:04.377Z,6.57
2018-09-08T04:20:31.951Z,6.40
2018-09-08T04:22:59.694Z,7.37
2018-09-08T04:25:27.415Z,7.60
2018-09-08T04:27:55.465Z,8.07
2018-09-08T04:30:23.306Z,7.50
2018-09-08T04:32:50.972Z,7.37
2018-09-08T04:35:18.484Z,7.03
2018-09-08T04:37:45.936Z,7.33
2018-09-08T04:40:13.789Z,7.50
2018-09-08T04:42:41.603Z,7.00
2018-09-08T04:45:09.340Z,6.20
2018-09-08T04:47:36.844Z,7.10
2018-09-08T04:50:04.564Z,6.87
2018-09-08T04:52:32.255Z,6.23
2018-09-08T04:54:59.764Z,5.90
2018-09-08T04:57:27.416Z,6.93
2018-09-08T04:59:55.262Z,6.97
2018-09-08T05:02:27.024Z,7.20
2018-09-08T05:04:54.943Z,6.60
2018-09-08T05:07:22.701Z,7.30
2018-09-08T05:09:50.452Z,7.57
2018-09-08T05:12:18.989Z,6.90
2018-09-08T05:14:47.104Z,6.50
2018-09-08T05:17:14.910Z,7.27
2018-09-08T05:19:42.479Z,6.80
2018-09-08T05:22:10.004Z,7.03
2018-09-08T05:24:37.548Z,7.70
2018-09-08T05:27:05.120Z,6.63
2018-09-08T05:29:32.750Z,7.70
2018-09-08T05:32:00.814Z,7.10
2018-09-08T05:34:28.700Z,7.53
2018-09-08T05:36:56.388Z,7.50
2018-09-08T05:39:24.044Z,7.03
2018-09-08T05:41:51.546Z,8.73
2018-09-08T05:44:19.611Z,7.20
2018-09-08T05:46:47.348Z,6.80
2018-09-08T05:49:18.293Z,7.00
2018-09-08T05:51:46.262Z,6.47
2018-09-08T05:54:13.782Z,6.90
2018-09-08T05:56:41.617Z,7.23
2018-09-08T05:59:09.185Z,7.50
2018-09-08T06:01:36.711Z,7.03
2018-09-08T06:04:04.376Z,6.50
2018-09-08T06:06:32.181Z,9.60
2018-09-08T06:09:00.071Z,6.47
2018-09-08T06:11:27.712Z,8.23
2018-09-08T06:13:55.436Z,7.30
2018-09-08T06:18:57.444Z,8.20
2018-09-08T06:21:25.220Z,7.83
2018-09-08T06:23:52.845Z,8.00
2018-09-08T06:26:20.458Z,8.40
2018-09-08T06:28:48.592Z,7.17
2018-09-08T06:31:16.860Z,7.20
2018-09-08T06:33:44.649Z,6.97
2018-09-08T06:36:12.286Z,7.27
2018-09-08T06:38:40.006Z,7.50
2018-09-08T06:41:07.602Z,7.50
2018-09-08T06:43:35.305Z,6.70
2018-09-08T06:46:03.293Z,7.40
2018-09-08T06:48:31.195Z,7.63
2018-09-08T06:50:58.752Z,9.63
2018-09-08T06:53:26.363Z,7.60
2018-09-08T06:55:54.003Z,6.80
2018-09-08T06:58:21.727Z,7.03
2018-09-08T07:00:49.567Z,6.97
2018-09-08T07:03:17.197Z,8.30
2018-09-08T07:05:44.876Z,6.73
2018-09-08T07:08:13.225Z,7.20
2018-09-08T07:10:41.026Z,6.80
2018-09-08T07:13:08.841Z,7.13
2018-09-08T07:15:36.957Z,7.30
2018-09-08T07:18:04.692Z,6.37
2018-09-08T07:20:32.264Z,6.77
2018-09-08T07:23:00.234Z,7.13
2018-09-08T07:25:29.959Z,6.77
2018-09-08T07:27:57.635Z,7.50
2018-09-08T07:30:25.725Z,8.70
2018-09-08T07:32:53.833Z,7.00
2018-09-08T07:35:21.669Z,7.53
2018-09-08T07:37:49.678Z,7.40
2018-09-08T07:40:18.777Z,6.70
2018-09-08T07:42:47.489Z,7.47
2018-09-08T07:45:15.131Z,7.00
2018-09-08T07:47:42.776Z,7.47
2018-09-08T07:50:11.302Z,7.70
2018-09-08T07:52:39.482Z,7.63
2018-09-08T07:55:07.397Z,6.60
2018-09-08T07:57:35.140Z,7.47
2018-09-08T08:00:03.435Z,6.17
2018-09-08T08:02:31.231Z,6.90
2018-09-08T08:04:59.514Z,6.27
2018-09-08T08:07:27.129Z,6.20
2018-09-08T08:09:54.727Z,6.10
2018-09-08T08:12:23.205Z,7.17
2018-09-08T08:14:50.969Z,7.33
2018-09-08T08:17:18.559Z,6.53
2018-09-08T08:19:47.103Z,6.10
2018-09-08T08:22:15.035Z,6.40
2018-09-08T08:24:42.713Z,5.40
2018-09-08T08:27:10.296Z,5.23
2018-09-08T08:29:38.653Z,5.40
2018-09-08T08:32:06.751Z,5.97
2018-09-08T08:34:34.713Z,5.10
2018-09-08T08:37:02.331Z,4.67
2018-09-08T08:39:29.936Z,4.50
2018-09-08T08:41:58.470Z,5.00
2018-09-08T08:44:26.796Z,5.07
2018-09-08T08:46:54.361Z,5.63
2018-09-08T08:49:21.962Z,5.37
2018-09-08T08:52:01.512Z,4.33
2018-09-08T08:55:00.867Z,4.90
2018-09-08T08:57:28.657Z,5.00
2018-09-08T08:59:56.230Z,5.53
2018-09-08T09:02:23.841Z,4.80
2018-09-08T09:04:51.647Z,4.30
2018-09-08T09:07:19.696Z,5.13
2018-09-08T09:09:47.758Z,3.60
2018-09-08T09:12:16.726Z,4.10
2018-09-08T09:14:44.820Z,3.80
2018-09-08T09:17:12.327Z,4.00
2018-09-08T09:19:51.511Z,3.60
2018-09-08T09:22:30.432Z,3.57
2018-09-08T09:25:01.132Z,4.00
2018-09-08T09:27:30.052Z,3.60
2018-09-08T09:29:58.050Z,3.97
2018-09-08T09:32:25.778Z,3.43
2018-09-08T09:34:53.642Z,3.17
2018-09-08T09:37:21.171Z,4.77
2018-09-08T09:40:06.943Z,5.03
2018-09-08T09:42:36.436Z,2.50
2018-09-08T09:45:04.715Z,2.73
2018-09-08T09:47:32.704Z,3.43
2018-09-08T09:50:00.255Z,3.23
2018-09-08T09:52:28.396Z,3.60
2018-09-08T09:54:56.748Z,3.23
2018-09-08T09:57:24.270Z,3.13
2018-09-08T09:59:52.197Z,3.70
2018-09-08T10:02:51.680Z,3.47
2018-09-08T10:05:23.231Z,2.70
2018-09-08T10:07:51.230Z,2.87
2018-09-08T10:10:24.935Z,2.60
2018-09-08T10:12:52.615Z,3.20
2018-09-08T10:15:20.534Z,3.57
2018-09-08T10:17:48.100Z,3.20
2018-09-08T10:20:18.018Z,4.57
2018-09-08T10:22:45.656Z,3.23
2018-09-08T10:25:15.561Z,3.00
2018-09-08T10:27:44.076Z,3.47
2018-09-08T10:30:12.325Z,3.47
2018-09-08T10:32:40.714Z,3.33
2018-09-08T10:35:08.614Z,2.90
2018-09-08T10:37:36.312Z,3.47
2018-09-08T10:40:03.943Z,2.93
2018-09-08T10:42:31.922Z,2.70
2018-09-08T10:45:00.107Z,2.43
2018-09-08T10:47:27.861Z,2.50
2018-09-08T10:49:56.053Z,2.37
2018-09-08T10:52:31.477Z,2.97
2018-09-08T10:54:59.378Z,2.73
2018-09-08T10:57:27.054Z,2.33
2018-09-08T10:59:54.665Z,2.50
2018-09-08T11:02:22.480Z,2.40
2018-09-08T11:04:49.847Z,2.57
2018-09-08T11:07:17.581Z,2.80
2018-09-08T11:09:45.361Z,3.10
2018-09-08T11:12:12.916Z,3.00
2018-09-08T11:14:40.425Z,3.27
2018-09-08T11:17:07.961Z,4.93
2018-09-08T11:19:35.484Z,4.40
2018-09-08T11:22:03.084Z,4.37
2018-09-08T11:24:31.207Z,3.73
2018-09-08T11:26:58.687Z,3.27
2018-09-08T11:29:26.221Z,4.13
2018-09-08T11:31:53.886Z,3.90
2018-09-08T11:34:22.692Z,3.83
2018-09-08T11:36:50.332Z,4.00
2018-09-08T11:39:18.013Z,4.50
2018-09-08T11:41:46.087Z,5.27
2018-09-08T11:44:13.728Z,4.40
2018-09-08T11:46:41.297Z,4.50
2018-09-08T11:49:08.768Z,4.90
2018-09-08T11:51:36.466Z,4.33
2018-09-08T11:54:04.268Z,4.47
2018-09-08T11:56:31.898Z,4.17
2018-09-08T11:58:59.574Z,3.27
2018-09-08T12:01:27.100Z,3.67
2018-09-08T12:03:55.198Z,3.57
2018-09-08T12:06:22.761Z,3.97
2018-09-08T12:08:50.397Z,4.53
2018-09-08T12:11:18.269Z,4.20
2018-09-08T12:13:45.917Z,5.23
2018-09-08T12:16:13.485Z,3.70
2018-09-08T12:18:41.205Z,4.13
2018-09-08T12:21:09.042Z,4.03
2018-09-08T12:23:36.971Z,3.97
2018-09-08T12:26:04.531Z,3.67
2018-09-08T12:28:32.096Z,3.57
2018-09-08T12:30:59.721Z,4.07
2018-09-08T12:33:27.184Z,4.40
2018-09-08T12:35:55.093Z,3.80
2018-09-08T12:38:22.614Z,3.60
2018-09-08T12:40:50.158Z,2.97
2018-09-08T12:43:17.771Z,3.03
2018-09-08T12:45:45.530Z,3.33
2018-09-08T12:48:13.345Z,4.17
2018-09-08T12:50:41.301Z,2.80
2018-09-08T12:53:09.360Z,3.47
2018-09-08T12:55:38.088Z,3.57
2018-09-08T12:58:05.749Z,3.10
2018-09-08T13:00:33.837Z,3.53
2018-09-08T13:03:01.894Z,3.77
2018-09-08T13:05:29.774Z,3.00
2018-09-08T13:07:57.841Z,3.50
2018-09-08T13:10:26.044Z,3.40
2018-09-08T13:12:54.105Z,3.50
2018-09-08T13:15:22.585Z,3.13
2018-09-08T13:17:50.760Z,3.40
2018-09-08T13:20:18.883Z,4.00
2018-09-08T13:22:46.799Z,2.90
2018-09-08T13:25:14.700Z,3.07
2018-09-08T13:27:43.159Z,3.43
2018-09-08T13:30:11.538Z,3.73
2018-09-08T13:32:39.289Z,2.80
2018-09-08T13:35:08.590Z,2.63
2018-09-08T13:37:36.469Z,3.33
2018-09-08T13:40:04.734Z,2.93
2018-09-08T13:42:32.804Z,2.70
2018-09-08T13:45:00.683Z,2.80
2018-09-08T13:47:28.921Z,3.03
2018-09-08T13:49:57.136Z,2.77
2018-09-08T13:52:25.044Z,2.70
2018-09-08T13:54:53.143Z,2.57
2018-09-08T13:57:21.640Z,3.00
2018-09-08T13:59:49.555Z,2.87
2018-09-08T14:02:17.884Z,3.20
2018-09-08T14:04:46.079Z,2.83
2018-09-08T14:07:14.551Z,3.30
2018-09-08T14:09:42.439Z,3.03
2018-09-08T14:12:11.218Z,2.90
2018-09-08T14:14:39.370Z,3.13
2018-09-08T14:17:07.480Z,3.90
2018-09-08T14:19:36.246Z,3.40
2018-09-08T14:22:04.089Z,3.57
2018-09-08T14:24:32.168Z,3.00
2018-09-08T14:26:59.980Z,3.23
2018-09-08T14:29:27.678Z,3.20
2018-09-08T14:31:55.421Z,3.23
2018-09-08T14:34:24.399Z,3.03
2018-09-08T14:36:52.733Z,3.30
2018-09-08T14:39:20.429Z,2.70
2018-09-08T14:41:48.380Z,3.20
2018-09-08T14:44:15.942Z,4.97
2018-09-08T14:46:43.840Z,2.50
2018-09-08T14:49:11.615Z,3.20
2018-09-08T14:51:39.242Z,3.40
2018-09-08T14:54:06.870Z,3.27
2018-09-08T14:56:34.813Z,3.00
2018-09-08T14:59:02.969Z,4.30
2018-09-08T15:01:30.502Z,3.50
2018-09-08T15:04:00.476Z,3.13
2018-09-08T15:06:28.094Z,3.23
2018-09-08T15:08:55.620Z,3.03
2018-09-08T15:11:23.413Z,3.00
2018-09-08T15:13:51.146Z,3.10
2018-09-08T15:16:18.624Z,3.30
2018-09-08T15:18:46.111Z,2.87
2018-09-08T15:21:13.624Z,3.37
2018-09-08T15:23:41.371Z,3.27
2018-09-08T15:26:09.149Z,2.60
2018-09-08T15:28:36.740Z,2.30
2018-09-08T15:31:06.616Z,3.30
2018-09-08T15:33:35.419Z,2.63
2018-09-08T15:36:02.995Z,2.70
2018-09-08T15:38:30.541Z,2.80
2018-09-08T15:40:58.035Z,2.93
2018-09-08T15:43:25.556Z,2.83
2018-09-08T15:45:53.203Z,3.23
2018-09-08T15:48:20.751Z,2.97
2018-09-08T15:50:49.102Z,3.00
2018-09-08T15:53:16.637Z,3.10
2018-09-08T15:55:44.368Z,3.20
2018-09-08T15:58:11.916Z,2.60
2018-09-08T16:00:39.472Z,2.60
2018-09-08T16:03:07.036Z,2.90
2018-09-08T16:05:34.532Z,3.13
2018-09-08T16:08:03.765Z,2.70
2018-09-08T16:10:33.017Z,2.97
2018-09-08T16:13:00.629Z,3.07
2018-09-08T16:15:28.462Z,3.00
2018-09-08T16:17:56.004Z,3.63
2018-09-08T16:20:24.172Z,3.00
2018-09-08T16:22:51.892Z,3.50
2018-09-08T16:25:19.440Z,3.10
2018-09-08T16:27:47.020Z,3.20
2018-09-08T16:30:14.560Z,3.47
2018-09-08T16:32:42.069Z,4.00
2018-09-08T16:35:09.708Z,3.40
2018-09-08T16:37:37.454Z,3.33
2018-09-08T16:40:06.196Z,2.97
2018-09-08T16:42:33.987Z,2.90
2018-09-08T16:45:01.496Z,5.40
2018-09-08T16:47:29.140Z,3.90
2018-09-08T16:49:56.819Z,3.50
2018-09-08T16:52:24.818Z,3.60
2018-09-08T16:54:52.265Z,4.00
2018-09-08T16:57:20.121Z,3.93
2018-09-08T16:59:47.613Z,3.50
2018-09-08T17:02:15.134Z,4.23
2018-09-08T17:04:42.633Z,3.70
2018-09-08T17:07:10.638Z,3.83
2018-09-08T17:09:38.230Z,3.30
2018-09-08T17:12:05.920Z,4.10
2018-09-08T17:14:33.616Z,3.10
2018-09-08T17:17:01.688Z,3.57
2018-09-08T17:19:29.398Z,3.60
2018-09-08T17:21:57.013Z,4.33
2018-09-08T17:24:25.044Z,4.23
2018-09-08T17:26:52.738Z,3.70
2018-09-08T17:29:20.429Z,3.60
2018-09-08T17:31:48.165Z,3.87
2018-09-08T17:34:15.980Z,3.70
2018-09-08T17:36:43.690Z,3.83
2018-09-08T17:39:12.717Z,3.50
2018-09-08T17:41:40.459Z,3.93
2018-09-08T17:44:08.211Z,4.57
2018-09-08T17:46:36.049Z,3.40
2018-09-08T17:49:03.580Z,4.80
2018-09-08T17:51:31.610Z,4.47
2018-09-08T17:53:59.699Z,4.70
2018-09-08T17:56:27.979Z,4.93
2018-09-08T17:58:55.558Z,3.20
2018-09-08T18:01:23.015Z,3.43
2018-09-08T18:03:51.863Z,3.57
2018-09-08T18:06:19.758Z,4.20
2018-09-08T18:08:47.246Z,4.83
2018-09-08T18:11:14.774Z,3.73
2018-09-08T18:13:42.416Z,4.20
2018-09-08T18:16:09.908Z,3.90
2018-09-08T18:18:37.436Z,4.10
2018-09-08T18:21:05.136Z,4.80
2018-09-08T18:23:32.753Z,5.00
2018-09-08T18:26:00.622Z,4.80
2018-09-08T18:28:28.173Z,4.60
2018-09-08T18:30:55.672Z,4.77
2018-09-08T18:33:23.152Z,4.47
2018-09-08T18:35:53.009Z,4.70
2018-09-08T18:38:20.644Z,4.10
2018-09-08T18:40:48.101Z,5.13
2018-09-08T18:43:15.993Z,4.60
2018-09-08T18:45:43.747Z,4.40
2018-09-08T18:48:11.568Z,8.00
2018-09-08T18:50:39.358Z,5.00
2018-09-08T18:53:07.961Z,5.27
2018-09-08T18:55:35.667Z,4.90
2018-09-08T18:58:03.363Z,4.83
2018-09-08T19:00:31.684Z,4.70
2018-09-08T19:02:59.289Z,5.00
2018-09-08T19:05:26.802Z,5.03
2018-09-08T19:07:54.343Z,4.90
2018-09-08T19:10:21.810Z,5.07
2018-09-08T19:12:49.338Z,4.43
2018-09-08T19:15:17.673Z,6.00
2018-09-08T19:17:46.498Z,4.70
2018-09-08T19:20:19.890Z,5.47
2018-09-08T19:22:47.472Z,5.50
2018-09-08T19:25:15.152Z,5.77
2018-09-08T19:27:42.698Z,5.37
2018-09-08T19:30:10.449Z,5.47
2018-09-08T19:32:38.043Z,5.90
2018-09-08T19:35:12.453Z,5.33
2018-09-08T19:37:40.021Z,5.30
2018-09-08T19:40:13.215Z,5.53
2018-09-08T19:42:41.433Z,5.53
2018-09-08T19:45:08.917Z,6.70
2018-09-08T19:47:42.027Z,7.23
2018-09-08T19:50:09.586Z,5.87
2018-09-08T19:52:42.923Z,5.97
2018-09-08T19:55:10.468Z,5.57
2018-09-08T19:57:43.752Z,6.40
2018-09-08T20:00:11.694Z,7.43
2018-09-08T20:02:39.558Z,6.97
2018-09-08T20:05:07.367Z,5.97
2018-09-08T20:07:35.129Z,6.90
2018-09-08T20:10:02.722Z,5.80
2018-09-08T20:12:30.319Z,7.33
2018-09-08T20:14:57.968Z,6.97
2018-09-08T20:17:25.629Z,6.80
2018-09-08T20:19:53.224Z,6.17
2018-09-08T20:22:20.708Z,10.20
2018-09-08T20:24:48.336Z,6.73
2018-09-08T20:27:15.872Z,7.30
2018-09-08T20:29:43.525Z,7.87
2018-09-08T20:32:11.178Z,6.67
2018-09-08T20:34:38.775Z,6.77
2018-09-08T20:37:06.312Z,7.30
2018-09-08T20:39:33.951Z,6.73
2018-09-08T20:42:01.812Z,7.80
2018-09-08T20:44:29.316Z,7.07
2018-09-08T20:46:56.838Z,8.20
2018-09-08T20:49:24.422Z,7.63
2018-09-08T20:51:52.008Z,8.30
2018-09-08T20:54:19.760Z,9.13
2018-09-08T20:56:47.417Z,8.00
2018-09-08T20:59:14.923Z,8.20
2018-09-08T21:01:42.489Z,8.60
2018-09-08T21:04:10.009Z,8.40
2018-09-08T21:06:37.695Z,8.80
2018-09-08T21:09:05.539Z,7.97
2018-09-08T21:11:33.275Z,7.90
2018-09-08T21:14:00.777Z,7.50
2018-09-08T21:16:28.394Z,6.97
2018-09-08T21:18:55.848Z,7.87
2018-09-08T21:21:23.415Z,7.63
2018-09-08T21:23:51.679Z,7.47
2018-09-08T21:26:19.399Z,8.00
2018-09-08T21:28:47.106Z,7.90
2018-09-08T21:31:14.565Z,9.07
2018-09-08T21:33:42.116Z,7.80
2018-09-08T21:36:09.577Z,8.30
2018-09-08T21:38:37.116Z,9.20
2018-09-08T21:41:05.992Z,8.23
2018-09-08T21:43:33.617Z,8.93
2018-09-08T21:46:01.479Z,7.90
2018-09-08T21:48:28.995Z,8.80
2018-09-08T21:50:57.798Z,8.53
2018-09-08T21:53:25.288Z,8.50
2018-09-08T21:55:52.855Z,9.53
2018-09-08T21:58:20.680Z,8.40
2018-09-08T22:00:53.992Z,8.60
2018-09-08T22:03:21.637Z,8.67
2018-09-08T22:05:49.319Z,9.97
2018-09-08T22:08:17.240Z,8.20
2018-09-08T22:10:44.814Z,8.40
2018-09-08T22:13:12.399Z,8.60
2018-09-08T22:15:40.236Z,9.47
2018-09-08T22:18:07.973Z,8.90
2018-09-08T22:20:36.525Z,6.87
2018-09-08T22:23:04.371Z,8.50
2018-09-08T22:25:31.826Z,8.37
2018-09-08T22:27:59.307Z,9.17
2018-09-08T22:30:26.783Z,9.33
2018-09-08T22:32:54.486Z,7.87
2018-09-08T22:35:22.482Z,8.40
2018-09-08T22:37:49.998Z,8.70
2018-09-08T22:40:17.480Z,8.70
2018-09-08T22:42:45.022Z,11.10
2018-09-08T22:45:12.495Z,8.20
2018-09-08T22:47:40.160Z,7.70
2018-09-08T22:50:08.072Z,8.40
2018-09-08T22:52:35.632Z,9.53
2018-09-08T22:55:03.080Z,8.53
2018-09-08T22:57:30.641Z,8.23
2018-09-08T22:59:58.171Z,8.40
2018-09-08T23:02:26.183Z,8.60
2018-09-08T23:04:53.754Z,7.77
2018-09-08T23:07:21.484Z,8.97
2018-09-08T23:09:49.008Z,9.80
2018-09-08T23:12:16.555Z,7.27
2018-09-08T23:14:44.067Z,10.07
2018-09-08T23:17:11.543Z,9.40
2018-09-08T23:19:38.975Z,8.30
2018-09-08T23:22:13.384Z,8.37
2018-09-08T23:24:40.855Z,9.23
2018-09-08T23:27:08.456Z,9.13
2018-09-08T23:29:35.976Z,9.50
2018-09-08T23:32:03.482Z,9.33
2018-09-08T23:34:31.156Z,9.50
2018-09-08T23:36:58.735Z,9.13
2018-09-08T23:39:26.327Z,9.73
2018-09-08T23:41:54.071Z,9.83
2018-09-08T23:44:21.654Z,9.50
2018-09-08T23:46:49.387Z,9.90
2018-09-08T23:49:16.961Z,9.73
2018-09-08T23:51:44.482Z,9.83
2018-09-08T23:54:12.080Z,10.47
2018-09-08T23:56:39.609Z,10.90
2018-09-08T23:59:07.552Z,10.27
